Tiempo atmosférico en la estación meteorológica de Tomelloso, Ciudad Real (662 m.)



Fecha
DESCASC
Temp. máxima en grados centígrados (hora)
DESCASC
Temp. mínima en grados centígrados (hora)
DESCASC
Temp. media en grados centígrados
DESCASC
Racha de viento máxima en m/sg (hora)
DESCASC
Velocidad máxima media en intervalos de 10 minutos(hora)
DESCASC
Precipitaciones diarias en mm
DESCASC
Precipitaciones de 00:00 a 06:00 en mm
DESCASC
Precipitaciones de 06:00 a 12:00 en mm
DESCASC
Precipitaciones de 12:00 a 18:00 en mm
DESCASC
Precipitaciones de 18:00 a 24:00 en mm
DESCASC
08-12-2019 11 (15:00) 1.1 (08:30) 6.1 5.28 (15:10) 2.78 (16:10) 0.2 0 0 0 0.2
07-12-2019 10.6 (15:20) 3 (02:40) 6.8 6.39 (08:00) 4.44 (04:00) 0.2 0 0 0.2 0
06-12-2019 13.2 (14:50) 4.8 (23:50) 9 9.44 (12:00) 6.94 (12:10) 0.2 0.2 0 0 0
05-12-2019 11 (16:10) 5.4 (00:00) 8.2 10 (12:40) 7.5 (12:50) 0.8 0.8 0 0 0
04-12-2019 7.6 (17:00) 4.7 (00:00) 6.1 5.56 (15:20) 2.5 (19:50) 2.2 0 0.6 1.6 0
03-12-2019 8.4 (13:50) 4.6 (00:00) 6.5 -- (--) -- (--) -- 0 -- 0 0
02-12-2019 9.9 (14:50) 5.9 (00:00) 7.9 -- (--) -- (--) 6.4 2.6 3.8 0 0
01-12-2019 12.1 (13:40) 5.7 (00:00) 8.9 9.17 (02:40) 4.72 (00:10) 1.6 0.4 0 0.2 1
30-11-2019 15.3 (14:40) 9.7 (00:00) 12.5 8.06 (17:10) 4.72 (23:59) 0 0 0 0 0
29-11-2019 13.6 (16:00) 9.8 (00:00) 11.7 7.22 (12:20) 3.89 (13:00) 0 0 0 0 0
28-11-2019 10.7 (13:50) 6.9 (00:00) 8.8 8.06 (12:00) 4.44 (11:40) 0.2 0 0 0.2 0
27-11-2019 13.7 (14:50) 8.6 (00:00) 11.2 11.11 (13:00) 5.83 (12:20) 0 0 0 0 0
26-11-2019 15.9 (14:20) 10.6 (00:00) 13.3 11.11 (21:40) 5.56 (23:40) 0.2 0 0 0.2 0
25-11-2019 14.8 (15:50) 8 (00:00) 11.4 9.17 (11:40) 5.28 (11:50) 0.8 0 0.2 0.6 0
24-11-2019 10.8 (16:00) 2.5 (00:00) 6.7 8.89 (16:40) 4.17 (16:40) 0 0 0 0 0
23-11-2019 12 (14:30) 5.5 (00:00) 8.8 15.28 (03:10) 6.94 (11:30) 1.6 1.6 0 0 0
22-11-2019 12.9 (15:20) 7.5 (00:00) 10.2 15 (15:00) 9.72 (15:00) 11.4 0.2 0 7.8 3.4
21-11-2019 11.2 (14:30) 6.5 (00:00) 8.8 8.61 (15:00) 4.17 (15:00) 0.8 0 0 0.6 0.2
20-11-2019 10.9 (13:00) 2 (00:00) 6.4 7.78 (17:30) 4.44 (19:00) 3.2 0 0 2.4 0.8
19-11-2019 11.2 (14:10) -0.8 (-00:0) 5.2 5.83 (15:40) 2.78 (16:40) 0 0 0 0 0
18-11-2019 10.7 (16:00) 1.5 (00:00) 6.1 -- (--) -- (--) 1 1 0 0 0
17-11-2019 7.6 (22:50) -0.1 (00:00) 3.7 11.39 (11:10) 5.56 (11:10) 13 0 0 0 13
16-11-2019 11 (15:40) 0.6 (00:00) 5.8 6.39 (13:00) 3.06 (20:40) 0 0 0 0 0
15-11-2019 -- (--) -- (--) -- -- (--) -- (--) -- -- -- -- 0
14-11-2019 -- (--) -- (--) -- -- (--) -- (--) -- -- -- -- --
13-11-2019 -- (--) -- (--) -- -- (--) -- (--) -- 2 -- -- --
12-11-2019 13.6 (15:20) 3 (00:00) 8.3 7.5 (23:20) 3.89 (23:59) 0 0 0 0 0
11-11-2019 10.6 (16:40) 3.1 (02:10) 6.9 7.5 (15:10) 3.89 (15:10) 0 0 0 0 0

Gráficas

Temp. máximas Temp. mínimas Temp. medias Precipitaciones Rachas de viento máximas Velocidades máximas media en intervalos de 10 minutos

Datos horarios

Fecha y hora oficial Temperatura (ºC) Velocidad del viento (km/h) Dirección del viento Racha (km/h) Dirección de racha Precipitación (mm) Presión (hPa) Tendencia (hPa) Humedad (%)
2019-12-10 23:00:00 2.3 4 Noroeste 11 Norte 0 948.8 -0.5 95
2019-12-10 22:00:00 3.2 3 Sur 13 Sur 0 948.8 -0.5 93
2019-12-10 21:00:00 4.2 8 Sur 11 Sur 0 948.8 -0.4 92
2019-12-10 20:00:00 5.5 4 Sudoeste 13 Oeste 0 949.3 0.1 91
2019-12-10 19:00:00 6 6 Oeste 12 Oeste 0 949.3 -0.2 89
2019-12-10 18:00:00 7 4 Oeste 9 Oeste 0 949.2 -1.1 82
2019-12-10 17:00:00 9 4 Oeste 10 Oeste 0 949.2 -1.8 74
2019-12-10 16:00:00 10.8 4 Noroeste 16 Noroeste 0 949.5 -2 69
2019-12-10 15:00:00 10.4 6 Oeste 14 Oeste 0 950.3 -1.7 69
2019-12-10 14:00:00 9.1 5 Oeste 12 Norte 0 951 -1.5 75
2019-12-10 13:00:00 7.3 5 Noroeste 16 Norte 0 951.5 -0.7 81
2019-12-10 12:00:00 6.1 4 Sur 9 Sudeste 0 952 -0.4 87
2019-12-10 11:00:00 4.2 5 Noroeste 10 Oeste 0 952.5 0 93
2019-12-10 10:00:00 3.7 3 Norte 9 Norte 0 952.2 0.1 96
2019-12-10 09:00:00 3.6 3 Sudoeste 11 Oeste 0 952.4 0 97
2019-12-10 08:00:00 3.8 5 Oeste 13 Oeste 0 952.5 -0.3 98
2019-12-10 07:00:00 4.2 4 Sudoeste 12 Oeste 0 952.1 -0.8 99
2019-12-10 06:00:00 4.3 4 Sudoeste 11 Oeste 0 952.4 -0.3 99
2019-12-10 05:00:00 4.6 5 Noroeste 14 Noroeste 0 952.8 0 100
2019-12-10 04:00:00 4.9 3 Noroeste 10 Oeste 0 952.9 -0.2 99
2019-12-10 03:00:00 5.3 3 Noroeste 10 Noroeste 0 952.7 -0.7 99
2019-12-10 02:00:00 5.6 3 Noroeste 9 Noroeste 0 952.8 -0.4 99
2019-12-10 01:00:00 5.8 4 Oeste 11 Sur 0 953.1 0 99
2019-12-10 00:00:00 5.8 5 Sur 9 Sur 0 953.4 0.7 98
2019-12-09 23:00:00 5.9 2 Norte 10 Oeste 0 953.2 1.3 97
2019-12-09 22:00:00 6.2 5 Oeste 10 Oeste 0 953.1 1.4 96
2019-12-09 21:00:00 6.6 4 Noroeste 19 Oeste 0 952.7 1.4 93
2019-12-09 20:00:00 8.2 6 Oeste 21 Oeste 0 951.9 1 92
2019-12-09 19:00:00 8.9 6 Oeste 11 Oeste 0 951.7 0.7 90
2019-12-09 18:00:00 9.8 6 Oeste 18 Oeste 0 951.3 0.2 85
2019-12-09 17:00:00 11 9 Oeste 20 Oeste 0 950.9 -0.7 78
2019-12-09 16:00:00 12.4 11 Oeste 22 Oeste 0 951 -1.4 70
2019-12-09 15:00:00 12.5 10 Oeste 22 Oeste 0 951.1 -2.1 66
2019-12-09 14:00:00 11.5 10 Oeste 21 Sudoeste 0 951.6 -1.7 76
2019-12-09 13:00:00 9.4 10 Oeste 17 Oeste 0 952.4 -0.4 79
2019-12-09 12:00:00 9 8 Oeste 16 Oeste 0 953.2 1.1 81
2019-12-09 11:00:00 7.8 5 Oeste 15 Noroeste 0 953.3 2.1 87
2019-12-09 10:00:00 7.6 3 Noroeste 13 Norte 0 952.8 1.7 90
2019-12-09 09:00:00 7.5 4 Noroeste 12 Oeste 0 952.1 1.5 94
2019-12-09 08:00:00 7.4 4 Oeste 11 Sudoeste 0 951.2 0.5 96
2019-12-09 07:00:00 7.3 4 Noroeste 13 Sudoeste 0 951.1 0.5 98
2019-12-09 06:00:00 7.3 4 Sudoeste 13 Sudoeste 0 950.6 0.5 98
2019-12-09 05:00:00 7.2 8 Oeste 20 Oeste 0 950.7 0.9 97
2019-12-09 04:00:00 8 9 Oeste 17 Oeste 0 950.6 0.6 95
2019-12-09 03:00:00 8.3 7 Sudoeste 15 Sudoeste 0 950.1 0.3 95
2019-12-09 02:00:00 8.3 6 Oeste 13 Sudoeste 0 949.8 0.5 95
2019-12-09 01:00:00 8.2 7 Sudoeste 16 Sudoeste 0 950 0.6 95
2019-12-09 00:00:00 8.1 8 Sudoeste 15 Sudoeste 0 949.8 0.9 95
2019-12-08 23:00:00 8 7 Sudoeste 15 Sudoeste 0 949.3 0.5 96
2019-12-08 22:00:00 8.4 5 Oeste 14 Oeste 0 949.4 0.7 96
2019-12-08 21:00:00 8.3 7 Sudoeste 13 Sudoeste 0 948.9 0.4 96
2019-12-08 20:00:00 8.3 6 Sudoeste 12 Sudoeste 0.2 948.8 0.7 96
2019-12-08 19:00:00 8.2 6 Sudoeste 14 Oeste 0 948.7 0.7 94
2019-12-08 18:00:00 8.3 6 Oeste 16 Oeste 0 948.5 0.7 93
2019-12-08 17:00:00 8.7 5 Oeste 18 Oeste 0 948.1 0 91
2019-12-08 16:00:00 9.8 8 Noroeste 19 Oeste 0 948 -0.8 90
2019-12-08 15:00:00 10.9 9 Oeste 18 Oeste 0 947.8 -1.7 89
2019-12-08 14:00:00 7.6 8 Oeste 15 Sudoeste 0 948.1 -1.7 98
2019-12-08 13:00:00 6.6 4 Noroeste 13 Noroeste 0 948.8 -0.9 99
2019-12-08 12:00:00 5.1 4 Sudoeste 11 Oeste 0 949.5 0.3 100
2019-12-08 11:00:00 2.4 4 Sur 9 Noroeste 0 949.8 1 --
2019-12-08 10:00:00 1.4 5 Oeste 10 Oeste 0 949.7 1 --
2019-12-08 09:00:00 1.2 6 Oeste 12 Sur 0 949.2 1.1 --
2019-12-08 08:00:00 1.4 10 Sur 12 Sur 0 948.8 0.6 --
2019-12-08 07:00:00 1.7 4 Oeste 9 Sudoeste 0 948.7 0.2 --
2019-12-08 06:00:00 1.8 5 Sudoeste 10 Sudoeste 0 948.1 -0.7 --
2019-12-08 05:00:00 2.2 6 Sudoeste 12 Sudoeste 0 948.2 -0.5 100
2019-12-08 04:00:00 2.6 5 Sudoeste 11 Sudoeste 0 948.5 -0.5 100
2019-12-08 03:00:00 3.1 5 Sudoeste 12 Sudoeste 0 948.8 -0.4 100
2019-12-08 02:00:00 3.4 7 Sudoeste 10 Sur 0 948.7 -0.2 100
2019-12-08 01:00:00 3.9 4 Sudoeste 12 Oeste 0 949 0.6 100
2019-12-08 00:00:00 3.8 8 Oeste 13 Sudoeste 0 949.2 1.1 100
2019-12-07 23:00:00 4.3 6 Oeste 14 Sudoeste 0 948.9 1 100
2019-12-07 22:00:00 5 7 Sudoeste 19 Sudoeste 0 948.4 0.9 99
2019-12-07 21:00:00 4.9 12 Sudoeste 19 Sudoeste 0 948.1 1.1 99
2019-12-07 20:00:00 5.6 11 Sudoeste 17 Sudoeste 0 947.9 1.1 94
2019-12-07 19:00:00 6.7 8 Sudoeste 15 Sudoeste 0 947.5 1.1 92
2019-12-07 18:00:00 7.9 4 Sudoeste 11 Oeste 0 947 0.9 89
2019-12-07 17:00:00 9.3 4 Oeste 12 Oeste 0 946.8 0.4 85
2019-12-07 16:00:00 10.6 5 Oeste 10 Oeste 0 946.4 -0.9 81
2019-12-07 15:00:00 9.3 3 Oeste 9 Este 0 946.1 -1.8 86
2019-12-07 14:00:00 8.7 3 Este 8 Sudeste 0 946.4 -1.4 92
2019-12-07 13:00:00 7.3 3 Este 12 Nordeste 0.2 947.3 0.1 96
2019-12-07 12:00:00 7 6 Sudeste 12 Este 0 947.9 1.1 99
2019-12-07 11:00:00 6.5 9 Este 13 Este 0 947.8 1.1 100
2019-12-07 10:00:00 6.2 8 Este 17 Este 0 947.2 0.9 100
2019-12-07 09:00:00 5.9 10 Este 19 Este 0 946.8 0.9 100
2019-12-07 08:00:00 5.8 15 Este 23 Este 0 946.7 0.6 100
2019-12-07 07:00:00 5.3 8 Este 15 Este 0 946.3 -0.1 100
2019-12-07 06:00:00 4.3 9 Sudeste 22 Sudeste 0 945.9 -0.3 100
2019-12-07 05:00:00 4.6 15 Sudeste 22 Sudeste 0 946.1 0.1 99
2019-12-07 04:00:00 4.3 16 Este 22 Este 0 946.4 0.4 99
2019-12-07 03:00:00 3 9 Nordeste 13 Nordeste 0 946.2 0.3 99
2019-12-07 02:00:00 3.3 3 Nordeste 6 Este 0 946 0.3 97
2019-12-07 01:00:00 3.7 5 Este 14 Nordeste 0 946 0.4 97
2019-12-07 00:00:00 4.8 10 Nordeste 15 Norte 0 945.9 0.5 96
2019-12-06 23:00:00 5.3 9 Norte 14 Norte 0 945.7 0.4 96
2019-12-06 22:00:00 5.6 7 Nordeste 15 Nordeste 0 945.6 0.9 95
2019-12-06 21:00:00 6.5 12 Nordeste 18 Este 0 945.4 1.1 94
2019-12-06 20:00:00 7.2 9 Nordeste 16 Este 0 945.3 1.2 92
2019-12-06 19:00:00 8.4 12 Este 23 Este 0 944.7 0.8 89
2019-12-06 18:00:00 9.6 18 Este 30 Este 0 944.3 0.5 87
2019-12-06 17:00:00 11.4 23 Este 32 Nordeste 0 944.1 0 80
2019-12-06 16:00:00 12.4 24 Nordeste 30 Nordeste 0 943.9 -1 77
2019-12-06 15:00:00 13.1 16 Nordeste 27 Este 0 943.8 -2 73
2019-12-06 14:00:00 12.5 21 Este 31 Este 0 944.1 -2.1 75
2019-12-06 13:00:00 11.3 22 Este 32 Este 0 944.9 -0.8 81
2019-12-06 12:00:00 10.6 25 Este 34 Este 0 945.8 0.5 83
2019-12-06 11:00:00 8.9 17 Este 24 Nordeste 0 946.2 1.3 89
2019-12-06 10:00:00 7.1 15 Este 21 Este 0 945.7 1.3 98
2019-12-06 09:00:00 5.2 12 Nordeste 19 Este 0 945.3 1.4 99
2019-12-06 08:00:00 5.4 13 Este 27 Este 0 944.9 1.1 99
2019-12-06 07:00:00 5.5 14 Este 26 Este 0 944.4 0.6 99
2019-12-06 06:00:00 5.6 15 Este 23 Este 0 943.9 0.4 98
2019-12-06 05:00:00 5.3 11 Este 18 Este 0 943.8 0.1 98
2019-12-06 04:00:00 5.7 11 Nordeste 20 Este 0 943.8 0 97
2019-12-06 03:00:00 6.4 13 Este 25 Este 0.2 943.5 -0.5 97
2019-12-06 02:00:00 6.3 14 Nordeste 18 Nordeste 0 943.7 0.2 96
2019-12-06 01:00:00 6.5 12 Este 19 Este 0 943.8 0.7 96
2019-12-06 00:00:00 7.2 14 Nordeste 27 Este 0 944 1 92
2019-12-05 23:00:00 8.2 19 Este 30 Este 0 943.5 1 93
2019-12-05 22:00:00 8.3 20 Este 28 Este 0 943.1 1.2 93
2019-12-05 21:00:00 8.8 19 Este 30 Este 0 943 1.9 91
2019-12-05 20:00:00 8.4 19 Este 27 Este 0 942.5 2 93
2019-12-05 19:00:00 8.2 16 Este 24 Este 0 941.9 1.9 92
2019-12-05 18:00:00 9.2 19 Este 30 Nordeste 0 941.1 1.2 90
2019-12-05 17:00:00 10.8 18 Este 26 Este 0 940.5 0.5 80
2019-12-05 16:00:00 10.6 14 Este 27 Este 0 940 0 85
2019-12-05 15:00:00 10.1 19 Este 29 Este 0 939.9 -0.3 84
2019-12-05 14:00:00 9 18 Este 29 Este 0 940 0.1 89
2019-12-05 13:00:00 9.7 25 Este 36 Este 0 940 0.9 86
2019-12-05 12:00:00 8.1 11 Este 18 Nordeste 0 940.2 1.8 89
2019-12-05 11:00:00 7.6 8 Nordeste 14 Nordeste 0 939.9 2.3 91
2019-12-05 10:00:00 6.7 8 Nordeste 11 Nordeste 0 939.1 2.1 94
2019-12-05 09:00:00 5.9 5 Norte 9 Norte 0 938.4 2.1 99
2019-12-05 08:00:00 5.6 4 Noroeste 8 Norte 0 937.6 1.4 99
2019-12-05 07:00:00 5.5 3 Norte 7 Norte 0 937 1 98
2019-12-05 06:00:00 5.9 4 Norte 6 Norte 0.2 936.3 0.6 98
2019-12-05 05:00:00 6.2 4 Nordeste 8 Nordeste 0.2 936.2 1 98
2019-12-05 04:00:00 6.3 6 Nordeste 8 Nordeste 0.2 936 1.2 98
2019-12-05 03:00:00 6.3 4 Noroeste 5 Noroeste 0 935.7 1.4 98
2019-12-05 02:00:00 6.7 4 Norte 6 Noroeste 0.2 935.2 1.2 97
2019-12-05 01:00:00 6.7 0 Calma 5 Norte 0 934.8 1.1 97
2019-12-05 00:00:00 6.9 4 Sudoeste 6 Norte 0 934.3 1 97
2019-12-04 23:00:00 7.2 2 Sudoeste 4 Sudoeste 0 934 1.2 96
2019-12-04 22:00:00 7.2 3 Oeste 10 Oeste 0 933.7 1.6 96
2019-12-04 21:00:00 7.4 5 Sudoeste 13 Oeste 0 933.3 1.4 96
2019-12-04 20:00:00 7.3 8 Sudoeste 14 Sudoeste 0 932.8 1.2 95
2019-12-04 19:00:00 7.3 5 Sudoeste 12 Oeste 0 932.1 0.7 96
2019-12-04 18:00:00 7.5 6 Noroeste 16 Noroeste 0 931.9 0.7 95
2019-12-04 17:00:00 7.6 6 Noroeste 17 Oeste 0 931.6 0.5 96
2019-12-04 16:00:00 7.3 6 Oeste 20 Oeste 0 931.4 -0.3 96
2019-12-04 15:00:00 7.1 6 Noroeste 18 Noroeste 0.2 931.2 -1.2 96
2019-12-04 14:00:00 7 8 Noroeste 19 Noroeste 0.6 931.1 -1.5 96
2019-12-04 13:00:00 6.8 6 Noroeste 17 Oeste 0.8 931.7 -0.8 96
2019-12-04 12:00:00 6.6 7 Noroeste 19 Noroeste 0.2 932.4 -0.4 96
2019-12-04 11:00:00 6.3 8 Noroeste 18 Oeste 0.2 932.6 -0.2 95
2019-12-04 10:00:00 6 7 Noroeste 17 Noroeste 0 932.5 -0.4 95
2019-12-04 09:00:00 5.8 5 Noroeste 15 Noroeste 0.2 932.8 -0.2 96
2019-12-04 08:00:00 5.7 5 Noroeste 14 Noroeste 0 932.8 -0.6 96
2019-12-04 07:00:00 5.7 6 Oeste 10 Oeste 0 932.9 -1.3 97
2019-12-04 06:00:00 5.6 2 Norte 6 Noroeste 0 933 -2 97
2019-12-04 05:00:00 5.3 3 Norte 6 Norte 0 933.4 -2 96
2019-12-04 04:00:00 5.2 3 Oeste 5 Noroeste 0 934.2 -1.9 96
2019-12-04 03:00:00 5.2 2 Noroeste 7 Norte 0 935 -1.7 95
2019-12-04 02:00:00 5.2 3 Norte 12 Nordeste 0 935.4 -1.6 94
2019-12-04 01:00:00 5.1 6 Norte 10 Nordeste 0 936.1 -0.8 94
2019-12-04 00:00:00 4.7 8 Nordeste 14 Este 0 936.7 -0.3 92
2019-12-03 23:00:00 4.8 9 Sudeste 20 Sudeste 0 937 0 88
2019-12-03 22:00:00 5.3 16 Este 27 Sudeste 0 936.9 0 87
2019-12-03 21:00:00 5.8 13 Este 28 Este 0 937 0.4 89
2019-12-03 20:00:00 6.2 15 Este 31 Este 0 937 0.7 88
2019-12-03 19:00:00 6.9 19 Este 31 Este 0 936.9 0.7 87
2019-12-03 18:00:00 7.3 21 Este 34 Este 0 936.6 0.4 86
2019-12-03 17:00:00 7.6 21 Este 35 Este 0 936.3 -0.2 86
2019-12-03 16:00:00 7.9 23 Este 36 Este 0 936.2 -0.7 87
2019-12-03 15:00:00 8.3 25 Este 36 Este 0 936.2 -1.4 85
2019-12-03 14:00:00 8.3 26 Este 39 Este 0 936.5 -1.5 86
2019-12-03 13:00:00 7.8 20 Este 38 Este 0 936.9 -1.1 87
2019-12-03 12:00:00 7.7 30 Este 43 Este 0 937.6 -0.4 87
2019-12-03 11:00:00 7.5 27 Este 43 Este 0 938 0.2 86
2019-12-03 10:00:00 6.7 21 Este -- -- -- 938 0.2 89
2019-12-03 09:00:00 6.6 -- -- -- -- 0 938 0.4 92
2019-12-03 08:00:00 6.5 17 Nordeste 24 Nordeste 0 937.8 -0.1 94
2019-12-03 07:00:00 5.9 10 Nordeste 17 Nordeste 0 937.8 -0.4 93
2019-12-03 06:00:00 6.6 12 Nordeste 27 Este 0 937.6 -1.2 90
2019-12-03 05:00:00 7.1 15 Nordeste 30 Nordeste 0 937.9 -0.9 89
2019-12-03 04:00:00 6.5 12 Nordeste 18 Nordeste 0 938.2 -1.2 90
2019-12-03 03:00:00 6.5 9 Nordeste 18 Nordeste 0 938.8 -0.9 89
2019-12-03 02:00:00 6.1 12 Nordeste 21 Nordeste 0 938.8 -0.9 90
2019-12-03 01:00:00 6.5 14 Nordeste 21 Nordeste 0 939.4 -0.2 87
2019-12-03 00:00:00 7 15 Nordeste 22 Nordeste 0 939.7 0.1 84
2019-12-02 23:00:00 6.9 14 Este -- -- 0 939.7 0.7 85
2019-12-02 22:00:00 7.8 -- -- -- -- 0 939.6 1.3 82
2019-12-02 21:00:00 7.8 -- -- -- -- 0 939.6 1.8 85
2019-12-02 20:00:00 8.3 -- -- -- -- 0 939 1.4 84
2019-12-02 19:00:00 8.4 16 Este 32 Este 0 938.3 1.2 88
2019-12-02 18:00:00 8.7 20 Este 38 Este 0 937.8 1.2 85
2019-12-02 17:00:00 8.8 27 Este -- -- 0 937.6 0.7 84
2019-12-02 16:00:00 9.6 33 Este 52 Este 0 937.1 -0.3 82
2019-12-02 15:00:00 9.9 30 Este 46 Este 0 936.6 -1.1 82
2019-12-02 14:00:00 9.2 31 Este -- -- 0 936.9 -0.7 85
2019-12-02 13:00:00 8.4 -- -- -- -- 0 937.4 0.4 87
2019-12-02 12:00:00 7.4 -- -- -- -- 0.2 937.7 1.3 90
2019-12-02 11:00:00 7.2 18 Nordeste -- -- 0.4 937.6 1.6 93
2019-12-02 10:00:00 6.9 -- -- -- -- 0 937 1.5 91
2019-12-02 09:00:00 6.3 24 Este -- -- 0.8 936.4 1.6 91
2019-12-02 08:00:00 5.9 -- -- -- -- 1.8 936 1.5 93
2019-12-02 07:00:00 7.2 -- -- -- -- 0.6 935.5 1.1 92
2019-12-02 06:00:00 7.5 20 Nordeste 32 Este 0 934.8 0.1 95
2019-12-02 05:00:00 7.5 32 Este 44 Este 0.8 934.5 0 94
2019-12-02 04:00:00 6.8 18 Nordeste 24 Este 0.2 934.4 -0.2 93
2019-12-02 03:00:00 7.3 10 Nordeste 18 Nordeste 0.4 934.7 0.1 95
2019-12-02 02:00:00 7 13 Nordeste 21 Nordeste 0.8 934.5 -0.1 96
2019-12-02 01:00:00 7.1 4 Nordeste 9 Nordeste 0.4 934.6 -0.1 95
2019-12-02 00:00:00 7.1 9 Este 17 Este 0.6 934.6 -0.2 94
2019-12-01 23:00:00 6.1 8 Nordeste 14 Este 0.2 934.6 -0.3 95
2019-12-01 22:00:00 6.2 5 Sur 10 Sur 0 934.7 0.5 91
2019-12-01 21:00:00 7 8 Sur 17 Sudoeste 0 934.8 0.8 89
2019-12-01 20:00:00 7.4 11 Oeste 27 Oeste 0.2 934.9 1 90
2019-12-01 19:00:00 9.4 5 Sur 17 Sur 0 934.2 -0.2 81
2019-12-01 18:00:00 9.7 11 Sur 21 Sur 0 934 -0.7 79
2019-12-01 17:00:00 10.9 12 Sur 25 Sudoeste 0 933.9 -1.4 72
2019-12-01 16:00:00 10.8 9 Sudoeste 21 Sudoeste 0.2 934.4 -1.6 76
2019-12-01 15:00:00 11.4 11 Sudoeste 20 Sudoeste 0 934.7 -2.2 67
2019-12-01 14:00:00 11.5 8 Sudoeste 23 Sudoeste 0 935.3 -2.3 60
2019-12-01 13:00:00 11.6 12 Sudoeste 25 Sudoeste 0 936 -1.6 59
2019-12-01 12:00:00 10.4 13 Sur 22 Sudoeste 0 936.9 -0.5 69
2019-12-01 11:00:00 8.9 15 Sudoeste 23 Sudoeste 0 937.6 0.2 81
2019-12-01 10:00:00 8 11 Sudoeste 22 Sudoeste 0 937.6 0.6 86
2019-12-01 09:00:00 6.7 12 Sudoeste 22 Sudoeste 0 937.4 0.1 90
2019-12-01 08:00:00 6 9 Sudoeste 18 Sudoeste 0 937.4 0 93
2019-12-01 07:00:00 6.6 10 Sudoeste 18 Sudoeste 0 937 -0.9 93
2019-12-01 06:00:00 7.3 9 Oeste 20 Oeste 0 937.3 -0.9 94
2019-12-01 05:00:00 8.2 12 Oeste 27 Oeste 0 937.4 -0.8 93
2019-12-01 04:00:00 8.9 11 Oeste 25 Sudoeste 0 937.9 -0.5 92
2019-12-01 03:00:00 9.1 12 Oeste 33 Oeste 0.2 938.2 -1 90
2019-12-01 02:00:00 10.6 15 Oeste 32 Oeste 0.2 938.2 -1.3 93
2019-12-01 01:00:00 11 15 Sudoeste 30 Sudoeste 0 938.4 -1.7 92
2019-12-01 00:00:00 11.5 17 Sudoeste 29 Sur 0 939.2 -1.3 87
2019-11-30 23:00:00 11.7 13 Sudoeste 21 Sudoeste 0 939.5 -1.3 84
2019-11-30 22:00:00 11.3 14 Sudoeste 24 Sudoeste 0 940.1 -0.8 84
2019-11-30 21:00:00 11 11 Sudoeste 18 Sudoeste 0 940.5 -0.9 84
2019-11-30 20:00:00 11.3 6 Sudoeste 19 Sudoeste 0 940.8 -0.5 80
2019-11-30 19:00:00 11.5 7 Oeste 18 Oeste 0 940.9 -0.7 79
2019-11-30 18:00:00 12.4 11 Oeste 29 Oeste 0 941.4 -0.7 79
2019-11-30 17:00:00 14 12 Oeste 25 Oeste 0 941.3 -1.7 74
2019-11-30 16:00:00 14.7 9 Oeste 26 Oeste 0 941.6 -2.2 75
2019-11-30 15:00:00 15.2 11 Oeste 24 Oeste 0 942.1 -2.7 74
2019-11-30 14:00:00 15.2 11 Oeste 22 Oeste 0 943 -2.1 73
2019-11-30 13:00:00 14 10 Oeste 23 Oeste 0 943.8 -1.3 77
2019-11-30 12:00:00 14 13 Oeste 25 Oeste 0 944.8 0 75
2019-11-30 11:00:00 13.8 10 Oeste 19 Sudoeste 0 945.1 0.4 78
2019-11-30 10:00:00 12.1 8 Sudoeste 19 Sudoeste 0 945.1 0.3 81
2019-11-30 09:00:00 10.5 5 Sudoeste 10 Sudoeste 0 944.8 -0.3 86
2019-11-30 08:00:00 10.4 5 Sudoeste 13 Sur 0 944.7 -0.3 87
2019-11-30 07:00:00 11.3 8 Sudoeste 15 Sudoeste 0 944.8 -0.2 85
2019-11-30 06:00:00 11.4 6 Sudoeste 15 Sudoeste 0 945.1 -0.5 85
2019-11-30 05:00:00 11.4 7 Sudoeste 14 Sudoeste 0 945 -0.8 85
2019-11-30 04:00:00 11.4 9 Sudoeste 14 Sudoeste 0 945 -1 86
2019-11-30 03:00:00 11.6 6 Sudoeste 14 Sudoeste 0 945.6 -0.1 85
2019-11-30 02:00:00 11.8 5 Sudoeste 13 Sudoeste 0 945.8 -0.1 83
2019-11-30 01:00:00 12 7 Sudoeste 16 Sudoeste 0 946 0.2 82
2019-11-30 00:00:00 12 10 Sudoeste 18 Sudoeste 0 945.7 -0.4 81
2019-11-29 23:00:00 11.9 6 Sudoeste 13 Sudoeste 0 945.9 -0.1 83
2019-11-29 22:00:00 12 7 Sudoeste 14 Sudoeste 0 945.8 0.2 83
2019-11-29 21:00:00 12.1 8 Sudoeste 18 Oeste 0 946.1 0.7 84
2019-11-29 20:00:00 12.1 7 Oeste 20 Sudoeste 0 946 0.6 85
2019-11-29 19:00:00 12.4 9 Oeste 17 Sudoeste 0 945.6 0.6 84
2019-11-29 18:00:00 12.8 9 Oeste 21 Oeste 0 945.4 0.4 85
2019-11-29 17:00:00 13.2 11 Oeste -- -- 0 945.4 0.3 82
2019-11-29 16:00:00 13.6 -- -- -- -- 0 945 -0.7 82
2019-11-29 15:00:00 13.3 13 Oeste 23 Sudoeste 0 945 -1.2 83
2019-11-29 14:00:00 13.2 12 Sudoeste 26 Sudoeste 0 945.1 -0.7 83
2019-11-29 13:00:00 12.5 14 Sudoeste 26 Oeste 0 945.7 0.5 85
2019-11-29 12:00:00 12.7 12 Sudoeste 25 Sudoeste 0 946.2 1.4 83
2019-11-29 11:00:00 12.2 12 Sudoeste 26 Sudoeste 0 945.8 1.3 84
2019-11-29 10:00:00 11.6 12 Sudoeste 25 Sudoeste 0 945.2 1.1 85
2019-11-29 09:00:00 11 12 Sudoeste 23 Sudoeste 0 944.8 1 86
2019-11-29 08:00:00 10.9 9 Sudoeste 18 Sudoeste 0 944.5 1.2 85
2019-11-29 07:00:00 10.9 9 Sudoeste 19 Sudoeste 0 944.1 0.9 84
2019-11-29 06:00:00 10.7 9 Sudoeste 20 Sudoeste 0 943.8 0.7 83
2019-11-29 05:00:00 10.6 10 Sudoeste 21 Sudoeste 0 943.3 0.6 83
2019-11-29 04:00:00 10.5 9 Sudoeste 24 Sudoeste 0 943.2 0 82
2019-11-29 03:00:00 10.1 11 Sudoeste 25 Sudoeste 0 943.1 -0.1 83
2019-11-29 02:00:00 10.2 11 Sudoeste 23 Sudoeste 0 942.7 -0.4 82
2019-11-29 01:00:00 9.9 9 Sudoeste 21 Sudoeste 0 943.2 0.3 85
2019-11-29 00:00:00 9.9 10 Sudoeste 26 Sudoeste 0 943.2 0.4 84
2019-11-28 23:00:00 10.3 13 Sudoeste 24 Sudoeste 0 943.1 0.8 81
2019-11-28 22:00:00 10.6 11 Sudoeste 22 Sudoeste 0 942.9 1.1 82
2019-11-28 21:00:00 10.5 9 Sudoeste 23 Sudoeste 0 942.8 1 83
2019-11-28 20:00:00 10.4 12 Sudoeste 24 Sudoeste 0 942.3 0.2 85
2019-11-28 19:00:00 10 13 Sudoeste 26 Sudoeste 0 941.8 -0.3 89
2019-11-28 18:00:00 9.8 11 Sudoeste 22 Sudoeste 0 941.8 -0.2 92
2019-11-28 17:00:00 9.6 11 Sudoeste 21 Sudoeste 0.2 942.1 -0.6 95
2019-11-28 16:00:00 9.8 8 Sudoeste 25 Oeste 0 942.1 -0.8 92
2019-11-28 15:00:00 10.6 10 Oeste 22 Oeste 0 942 -1.3 82
2019-11-28 14:00:00 10.4 12 Oeste 26 Sudoeste 0 942.7 -0.8 83
2019-11-28 13:00:00 10.2 10 Sudoeste 26 Sudoeste 0 942.9 -0.1 82
2019-11-28 12:00:00 9.8 15 Sudoeste 29 Sudoeste 0 943.3 0.8 84
2019-11-28 11:00:00 9.6 12 Sudoeste 23 Sudoeste 0 943.5 1.7 84
2019-11-28 10:00:00 8.9 12 Sudoeste 21 Sudoeste 0 943 2 88
2019-11-28 09:00:00 8.4 10 Sudoeste 23 Sudoeste 0 942.5 1.9 90
2019-11-28 08:00:00 7.3 10 Sudoeste 20 Sudoeste 0 941.8 1.5 93
2019-11-28 07:00:00 6.9 11 Sudoeste 22 Sudoeste 0 941 0.5 93
2019-11-28 06:00:00 7.3 9 Sudoeste 19 Sudoeste 0 940.6 0.1 91
2019-11-28 05:00:00 8.3 12 Sudoeste 24 Sudoeste 0 940.3 0.1 88
2019-11-28 04:00:00 7.9 8 Sudoeste 16 Sudoeste 0 940.5 0.3 87
2019-11-28 03:00:00 8 8 Sudoeste 22 Sudoeste 0 940.5 0.1 86
2019-11-28 02:00:00 8.2 12 Sudoeste 26 Sudoeste 0 940.2 0.2 85
2019-11-28 01:00:00 8.4 14 Sudoeste 24 Sudoeste 0 940.2 0.4 85
2019-11-28 00:00:00 8.6 12 Sudoeste 22 Sudoeste 0 940.4 0.6 84
2019-11-27 23:00:00 8.9 12 Sudoeste 23 Sudoeste 0 940 1 84
2019-11-27 22:00:00 9.4 12 Sudoeste 22 Sudoeste 0 939.8 1.3 84
2019-11-27 21:00:00 9.2 9 Sudoeste 19 Sudoeste 0 939.8 1.4 87
2019-11-27 20:00:00 9.8 8 Sudoeste 19 Sudoeste 0 939 1.2 85
2019-11-27 19:00:00 10.5 11 Sudoeste 23 Sudoeste 0 938.5 0.9 85
2019-11-27 18:00:00 11.7 12 Oeste 27 Sudoeste 0 938.4 0.6 79
2019-11-27 17:00:00 12.4 10 Oeste 31 Oeste 0 937.8 -0.4 74
2019-11-27 16:00:00 12.5 13 Oeste 30 Oeste 0 937.6 -1 71
2019-11-27 15:00:00 12.5 17 Oeste 39 Oeste 0 937.8 -1.1 68
2019-11-27 14:00:00 12.7 20 Oeste 37 Oeste 0 938.2 -0.7 68
2019-11-27 06:00:00 11.2 18 Sudoeste 39 Sudoeste 0 936 0.3 86
2019-11-27 05:00:00 11.2 18 Sudoeste 35 Sudoeste 0 935.7 -0.1 89
2019-11-27 04:00:00 11.3 16 Oeste 34 Sudoeste 0 935.5 -0.5 90
2019-11-27 03:00:00 11.7 15 Sudoeste 37 Sudoeste 0 935.7 -0.2 91
2019-11-27 02:00:00 12.3 14 Sudoeste 33 Sudoeste 0 935.8 -0.4 90
2019-11-27 01:00:00 12.9 16 Sudoeste 37 Sudoeste 0 936 0 89
2019-11-27 00:00:00 12.6 18 Sudoeste 37 Sudoeste 0 935.9 -0.2 90
2019-11-26 23:00:00 12.3 16 Sudoeste 36 Sudoeste 0 936.2 -0.2 91
2019-11-26 22:00:00 13.4 18 Sudoeste 40 Sudoeste 0 936 -0.8 82
2019-11-26 21:00:00 13.2 18 Sudoeste 39 Sudoeste 0 936.1 -0.7 85
2019-11-26 20:00:00 13 11 Sudoeste 25 Sudoeste 0 936.4 -0.2 87
2019-11-26 19:00:00 13.5 14 Sudoeste 28 Sudoeste 0 936.8 -0.1 86
2019-11-26 18:00:00 14.4 11 Sudoeste 25 Sudoeste 0 936.8 -0.8 83
2019-11-26 17:00:00 14.2 12 Sudoeste 30 Sudoeste 0 936.6 -1.7 88
2019-11-26 16:00:00 14.9 14 Sudoeste -- -- 0 936.9 -2.4 82
2019-11-26 15:00:00 14.8 14 Sudoeste 28 Sudoeste 0 937.6 -2.2 82
2019-11-26 14:00:00 14.9 14 Sudoeste 25 Sudoeste 0.2 938.3 -1.9 82
2019-11-26 13:00:00 13 9 Sudoeste 32 Sudoeste 0 939.3 -1.2 91
2019-11-26 12:00:00 13.5 14 Sudoeste 31 Sudoeste 0 939.8 -0.4 81
2019-11-26 11:00:00 12.9 8 Sudoeste 17 Sur 0 940.2 0.4 83
2019-11-26 10:00:00 11.5 9 Sudoeste 17 Sudoeste 0 940.5 1 88
2019-11-26 09:00:00 10.9 9 Sudoeste 21 Sudoeste 0 940.2 0.3 91
2019-11-26 08:00:00 10.6 11 Sudoeste 20 Sudoeste 0 939.8 -0.3 90
2019-11-26 07:00:00 10.9 6 Sudoeste 14 Oeste 0 939.5 -0.7 86
2019-11-26 06:00:00 10.9 7 Oeste 21 Oeste 0 939.9 -0.7 86
2019-11-26 05:00:00 11.1 12 Oeste 20 Oeste 0 940.1 -0.5 87
2019-11-26 04:00:00 11.2 8 Sudoeste 18 Oeste 0 940.2 -1 87
2019-11-26 03:00:00 11.4 9 Oeste 18 Sudoeste 0 940.6 -0.5 89
2019-11-26 02:00:00 11.4 10 Sudoeste 24 Sudoeste 0 940.6 -0.7 89
2019-11-26 01:00:00 11.4 9 Sudoeste 21 Sudoeste 0 941.2 0.1 89
2019-11-26 00:00:00 11.4 12 Sudoeste 24 Sudoeste 0 941.1 0.3 89
2019-11-25 23:00:00 11.2 8 Sudoeste 21 Sudoeste 0 941.3 0.9 90
2019-11-25 22:00:00 11.2 10 Sudoeste 21 Sudoeste 0 941.1 0.8 90
2019-11-25 21:00:00 11.7 10 Sudoeste 18 Sudoeste 0 940.8 1.1 90
2019-11-25 20:00:00 12 8 Sudoeste 22 Oeste 0 940.4 0.8 89
2019-11-25 19:00:00 12.6 10 Oeste 21 Oeste 0 940.3 1.2 86
2019-11-25 18:00:00 13 9 Oeste 22 Oeste 0 939.7 0.5 84
2019-11-25 17:00:00 13.9 9 Oeste 30 Oeste 0 939.6 0.2 91
2019-11-25 16:00:00 14.6 13 Oeste 29 Oeste 0 939.1 -0.6 85
2019-11-25 15:00:00 13.1 11 Oeste 20 Sudoeste 0.4 939.2 -0.9 96
2019-11-25 14:00:00 12 9 Sudoeste 23 Sudoeste 0.2 939.4 -1 96
2019-11-25 13:00:00 12.1 11 Sudoeste 30 Sudoeste 0 939.7 -0.4 93
2019-11-25 12:00:00 12 17 Sudoeste 33 Sudoeste 0 940.1 0.8 91
2019-11-25 11:00:00 11.4 15 Sudoeste 26 Sudoeste 0 940.4 0.9 90
2019-11-25 10:00:00 10.5 11 Sudoeste 30 Sudoeste 0 940.1 0.8 91
2019-11-25 09:00:00 9.7 16 Sudoeste 28 Sudoeste 0 939.3 0.2 93
2019-11-25 08:00:00 9.1 13 Sudoeste 26 Sudoeste 0 939.5 0.3 94
2019-11-25 07:00:00 9.2 15 Sudoeste 29 Sudoeste 0.2 939.3 0 93
2019-11-25 06:00:00 9.1 14 Sudoeste 30 Sudoeste 0 939.1 -0.5 89
2019-11-25 05:00:00 9.1 11 Sudoeste 25 Sudoeste 0 939.2 -0.9 87
2019-11-25 04:00:00 9.1 13 Sudoeste 27 Sudoeste 0 939.3 -0.9 86
2019-11-25 03:00:00 8.9 15 Sudoeste 26 Sudoeste 0 939.6 -1.1 85
2019-11-25 02:00:00 8.9 11 Sudoeste 26 Sudoeste 0 940.1 -0.4 83
2019-11-25 01:00:00 8.4 13 Sudoeste 25 Sudoeste 0 940.2 -0.7 85
2019-11-25 00:00:00 8 13 Sudoeste 28 Sudoeste 0 940.7 0 84
2019-11-24 23:00:00 7.9 11 Sudoeste 22 Sudoeste 0 940.5 0.5 84
2019-11-24 22:00:00 7.3 12 Sudoeste 27 Sudoeste 0 940.9 1 84
2019-11-24 21:00:00 6.7 9 Sudoeste 22 Sudoeste 0 940.7 1.4 85
2019-11-24 20:00:00 7.5 11 Sudoeste 25 Sudoeste 0 940 0.8 81
2019-11-24 19:00:00 8 11 Oeste 22 Oeste 0 939.9 1.2 79
2019-11-24 18:00:00 8.7 9 Sudoeste 23 Sudoeste 0 939.3 0.5 75
2019-11-24 17:00:00 9.6 10 Oeste 32 Oeste 0 939.2 -0.3 66
2019-11-24 16:00:00 10.5 13 Sudoeste 28 Sudoeste 0 938.7 -1.3 65
2019-11-24 15:00:00 10.4 10 Sudoeste 25 Sudoeste 0 938.8 -1.6 69
2019-11-24 14:00:00 9.8 11 Oeste 21 Oeste 0 939.5 -1 72
2019-11-24 13:00:00 9.1 10 Oeste 24 Oeste 0 940 -0.2 76
2019-11-24 12:00:00 9 11 Oeste 20 Sudoeste 0 940.4 0.7 76
2019-11-24 11:00:00 7.8 10 Oeste 21 Oeste 0 940.5 1.6 81
2019-11-24 10:00:00 6.1 11 Oeste 22 Oeste 0 940.2 2 87
2019-11-24 09:00:00 4 9 Sudoeste 19 Sudoeste 0 939.7 2.6 91
2019-11-24 08:00:00 3.3 11 Sudoeste 19 Sudoeste 0 938.9 1.9 94
2019-11-24 07:00:00 3.1 9 Sudoeste 17 Sudoeste 0 938.2 1.4 94
2019-11-24 06:00:00 3.3 6 Oeste 17 Oeste 0 937.1 0.6 93
2019-11-24 05:00:00 3.7 8 Sudoeste 19 Sudoeste 0 937 1 92
2019-11-24 04:00:00 4 9 Sudoeste 24 Oeste 0 936.8 0.7 90
2019-11-24 03:00:00 4.4 9 Sudoeste 21 Sudoeste 0 936.5 0.6 88
2019-11-24 02:00:00 4.3 10 Sudoeste 22 Oeste 0 936 0.6 88
2019-11-24 01:00:00 4.8 10 Oeste 25 Oeste 0 936.1 1 85
2019-11-24 00:00:00 5.5 14 Oeste 24 Oeste 0 935.9 1.3 83
2019-11-23 23:00:00 5.9 12 Oeste 24 Sudoeste 0 935.4 1.7 80
2019-11-23 22:00:00 6.1 10 Sudoeste 23 Sudoeste 0 935.1 2.1 80
2019-11-23 21:00:00 6.8 10 Oeste 25 Oeste 0 934.6 2.6 77
2019-11-23 20:00:00 8 11 Oeste 27 Oeste 0 933.7 2.7 71
2019-11-23 19:00:00 8.6 13 Oeste 30 Oeste 0 933 2.9 71
2019-11-23 18:00:00 9.6 12 Oeste 30 Oeste 0 932 2.5 67
2019-11-23 17:00:00 10.8 15 Oeste 35 Oeste 0 931 1.6 62
2019-11-23 16:00:00 11.6 20 Oeste 40 Oeste 0 930.1 1.1 61
2019-11-23 15:00:00 11.1 17 Oeste 40 Oeste 0 929.5 0.9 63
2019-11-23 14:00:00 11.3 18 Oeste 39 Oeste 0 929.4 1.4 61
2019-11-23 13:00:00 10.5 18 Oeste 42 Oeste 0 929 1.9 67
2019-11-23 12:00:00 9.3 22 Oeste 45 Oeste 0 928.6 3.2 72
2019-11-23 11:00:00 8.8 20 Oeste 48 Oeste 0 928 3.6 76
2019-11-23 10:00:00 8.1 14 Oeste 33 Oeste 0 927.1 4.1 80
2019-11-23 09:00:00 6.5 18 Oeste 39 Oeste 0 925.4 3 86
2019-11-23 08:00:00 6.4 16 Sudoeste 33 Sudoeste 0 924.4 2.8 87
2019-11-23 07:00:00 6.6 15 Oeste 36 Sudoeste 0 923 2.1 89
2019-11-23 06:00:00 7 13 Oeste 35 Oeste 0 922.4 1.9 89
2019-11-23 05:00:00 7.7 18 Oeste 43 Oeste 0 921.6 1 88
2019-11-23 04:00:00 8.1 21 Oeste 55 Oeste 0 920.9 -0.4 85
2019-11-23 03:00:00 8.2 20 Oeste 41 Sudoeste 1 920.5 -0.8 91
2019-11-23 02:00:00 8.6 15 Sudoeste 35 Sudoeste 0.4 920.6 -1 90
2019-11-23 01:00:00 8.9 16 Oeste 49 Sudoeste 0.2 921.3 -0.2 85
2019-11-23 00:00:00 9.3 20 Oeste 45 Oeste 0 921.3 0 92
2019-11-22 23:00:00 9.7 8 Oeste 29 Sudoeste 2 921.6 0.8 94
2019-11-22 22:00:00 10.9 15 Sudoeste 36 Sudoeste 0 921.5 1.6 83
2019-11-22 21:00:00 10.9 17 Sudoeste 37 Sudoeste 0 921.3 2.2 89
2019-11-22 20:00:00 11.3 15 Oeste 37 Oeste 0.2 920.8 1.5 88
2019-11-22 19:00:00 11.9 16 Sudoeste 41 Sudoeste 1.2 919.9 0 94
2019-11-22 18:00:00 12 15 Sudoeste 44 Sudoeste 3.2 919.1 -0.9 93
2019-11-22 17:00:00 12.4 26 Sudoeste 44 Sudoeste 0.4 919.3 -2.3 89
2019-11-22 16:00:00 12.1 24 Sudoeste 53 Sudoeste 3.2 919.9 -3.7 93
2019-11-22 15:00:00 12.8 35 Sudoeste 54 Sudoeste 0.2 920 -5.5 87
2019-11-22 14:00:00 11.9 24 Sur 45 Sudoeste 0.8 921.6 -5 90
2019-11-22 13:00:00 12.1 26 Sudoeste 42 Sudoeste 0 923.6 -3.7 85
2019-11-22 12:00:00 12.2 25 Sudoeste 39 Sur 0 925.5 -2.4 83
2019-11-22 11:00:00 11.6 21 Sudoeste 35 Sudoeste 0 926.6 -1.7 85
2019-11-22 10:00:00 10.4 18 Sudoeste 29 Sudoeste 0 927.3 -1.7 84
2019-11-22 09:00:00 9.7 14 Sudoeste 24 Sudoeste 0 927.9 -1.4 88
2019-11-22 08:00:00 8.9 11 Sur 17 Sur 0 928.3 -1.6 92
2019-11-22 07:00:00 9 10 Sudoeste 20 Sudoeste 0 929 -1.3 91
2019-11-22 06:00:00 8.7 9 Sudoeste 13 Sudoeste 0 929.3 -1.5 92
2019-11-22 05:00:00 8.1 6 Sudoeste 12 Sur 0 929.9 -1.2 94
2019-11-22 04:00:00 8 5 Sudoeste 10 Sur 0 930.3 -1.5 95
2019-11-22 03:00:00 8 3 Sudoeste 6 Sudoeste 0.2 930.8 -1.4 96
2019-11-22 02:00:00 7.8 4 Sudoeste 8 Sur 0 931.1 -1.3 96
2019-11-22 01:00:00 7.6 4 Sur 9 Sur 0 931.8 -0.6 95
2019-11-22 00:00:00 7.8 7 Sur 12 Sudoeste 0 932.2 -0.1 95
2019-11-21 23:00:00 7.7 6 Sudoeste 9 Sudoeste 0 932.4 0 95
2019-11-21 22:00:00 8.2 6 Sudoeste 12 Sur 0 932.4 0.1 93
2019-11-21 21:00:00 8.9 7 Sudoeste 12 Sudoeste 0 932.3 0.4 93
2019-11-21 20:00:00 9.2 6 Sudoeste 14 Sudoeste 0 932.4 0.5 93
2019-11-21 19:00:00 9.3 4 Sudoeste 9 Oeste 0.2 932.3 0.6 94
2019-11-21 18:00:00 9.7 6 Sudoeste 15 Sudoeste 0.2 931.9 0.2 89
2019-11-21 17:00:00 10 10 Oeste 22 Sudoeste 0 931.9 -0.2 88
2019-11-21 16:00:00 10.5 14 Sudoeste 27 Sudoeste 0.2 931.7 -1.1 86
2019-11-21 15:00:00 10.4 15 Sudoeste 31 Sudoeste 0.2 931.7 -1.9 85
2019-11-21 14:00:00 10.9 12 Sudoeste 22 Sudoeste 0 932.1 -1.6 80
2019-11-21 13:00:00 10.7 11 Sudoeste 23 Sudoeste 0 932.8 -0.7 81
2019-11-21 12:00:00 10.4 12 Sudoeste 21 Sur 0 933.6 0.1 83
2019-11-21 11:00:00 9.5 11 Sudoeste 17 Sudoeste 0 933.7 0.6 85
2019-11-21 10:00:00 8.5 9 Sudoeste 19 Sudoeste 0 933.5 0.8 88
2019-11-21 09:00:00 7.7 9 Sudoeste 17 Sudoeste 0 933.5 0.8 91
2019-11-21 08:00:00 7.1 6 Sudoeste 15 Sur 0 933.1 0.2 92
2019-11-21 07:00:00 6.9 9 Sudoeste 15 Sudoeste 0 932.7 -0.4 92
2019-11-21 06:00:00 6.8 7 Sudoeste 12 Sudoeste 0 932.7 -0.5 93
2019-11-21 05:00:00 6.7 6 Sudoeste 12 Oeste 0 932.9 -0.4 93
2019-11-21 04:00:00 6.7 4 Sudoeste 12 Sudoeste 0 933.1 -0.5 92
2019-11-21 03:00:00 7 6 Sudoeste 14 Sudoeste 0 933.2 -0.2 92
2019-11-21 02:00:00 7.1 7 Sudoeste 17 Sudoeste 0 933.3 0 91
2019-11-21 01:00:00 7 8 Sudoeste 21 Sudoeste 0 933.6 0.3 90
2019-11-21 00:00:00 6.9 10 Sudoeste 21 Sudoeste 0 933.4 0.3 90
2019-11-20 23:00:00 6.6 9 Sudoeste 20 Sudoeste 0 933.3 0.1 90
2019-11-20 22:00:00 6.3 11 Sudoeste 17 Sur 0 933.3 0.3 91
2019-11-20 21:00:00 6.1 13 Sudoeste 19 Sudoeste 0 933.1 0 90
2019-11-20 20:00:00 6 11 Sudoeste 22 Sur 0.4 933.2 -0.2 89
2019-11-20 19:00:00 5.7 16 Sudoeste 26 Sudoeste 0.4 933 -0.4 90
2019-11-20 18:00:00 6.1 13 Sur 28 Sudoeste 1 933.1 -0.1 88
2019-11-20 17:00:00 6.8 9 Sudoeste 18 Sur 1.2 933.4 -0.4 87
2019-11-20 16:00:00 7.6 9 Sudoeste 26 Sudoeste 0.2 933.4 -1.1 80
2019-11-20 15:00:00 8.9 10 Sudoeste 24 Sudoeste 0 933.2 -1.9 70
2019-11-20 14:00:00 9.7 13 Oeste 26 Sudoeste 0 933.8 -1.8 62
2019-11-20 13:00:00 10.8 10 Sudoeste 23 Sur 0 934.5 -1.3 55
2019-11-20 12:00:00 10.1 11 Sudoeste 18 Sudoeste 0 935.1 -0.7 59
2019-11-20 11:00:00 9 13 Sur 19 Sudoeste 0 935.6 0 64
2019-11-20 10:00:00 6.4 8 Sur 17 Sudoeste 0 935.8 -0.1 79
2019-11-20 09:00:00 4.7 9 Sur 14 Sur 0 935.8 -0.3 82
2019-11-20 08:00:00 2.3 5 Sur 14 Sur 0 935.6 -0.8 89
2019-11-20 07:00:00 2.1 7 Sur 10 Sudoeste 0 935.9 -1 91
2019-11-20 06:00:00 2.3 5 Sur 11 Sur 0 936.1 -1.1 91
2019-11-20 05:00:00 2.4 7 Sur 12 Sur 0 936.4 -1.1 92
2019-11-20 04:00:00 2.8 7 Sur 10 Sur 0 936.9 -1 90
2019-11-20 03:00:00 3.7 5 Sur 9 Sur 0 937.2 -1 89
2019-11-20 02:00:00 4.5 6 Sur 9 Sur 0 937.5 -1.3 86
2019-11-20 01:00:00 4.6 6 Sudoeste 10 Sudoeste 0 937.9 -1.1 86
2019-11-20 00:00:00 4.9 6 Sur 10 Sudoeste 0 938.2 -0.8 85
2019-11-19 23:00:00 4.9 7 Sur 12 Sur 0 938.8 -0.3 85
2019-11-19 22:00:00 5.4 5 Sudoeste 10 Sur 0 939 0.1 83
2019-11-19 21:00:00 5.8 5 Sur 8 Sur 0 939 0.2 81
2019-11-19 20:00:00 6.6 5 Sudoeste 9 Sudoeste 0 939.1 0.2 77
2019-11-19 19:00:00 7 5 Sudoeste 9 Sudoeste 0 938.9 -0.2 73
2019-11-19 18:00:00 8.1 5 Oeste 13 Oeste 0 938.8 -0.6 68
2019-11-19 17:00:00 9.5 8 Oeste 20 Sudoeste 0 938.9 -1 58
2019-11-19 16:00:00 10.2 9 Oeste 21 Oeste 0 939.1 -1.6 54
2019-11-19 15:00:00 10.2 7 Oeste 18 Oeste 0 939.4 -2.1 57
2019-11-19 14:00:00 11.1 7 Oeste 16 Oeste 0 939.9 -2.2 55
2019-11-19 13:00:00 9.7 8 Sudoeste 15 Noroeste 0 940.7 -1.3 59
2019-11-19 12:00:00 8.5 9 Oeste 15 Sudoeste 0 941.5 -0.2 61
2019-11-19 11:00:00 6.5 6 Sudoeste 13 Sudoeste 0 942.1 0.7 71
2019-11-19 10:00:00 4.4 6 Sudoeste 11 Sudoeste 0 942 1 78
2019-11-19 09:00:00 2 6 Sudoeste 9 Sur 0 941.7 0.8 84
2019-11-19 08:00:00 0.2 5 Sudoeste 12 Sur 0 941.4 0.5 90
2019-11-19 07:00:00 0.2 6 Sur 9 Sur 0 941 0 91
2019-11-19 06:00:00 -0.1 8 Sur 10 Sur 0 940.9 -0.2 93
2019-11-19 05:00:00 -0.3 5 Sur 8 Sur 0 940.9 -0.3 95
2019-11-19 04:00:00 -0.4 3 Noroeste 7 Noroeste 0 941 -0.3 94
2019-11-19 03:00:00 0.2 4 Sudoeste 5 Sudoeste 0 941.1 -0.3 92
2019-11-19 02:00:00 1.9 4 Sudoeste 8 Sudoeste 0 941.2 -0.4 87
2019-11-19 01:00:00 2.7 4 Sudoeste 9 Noroeste 0 941.3 0 84
2019-11-19 00:00:00 2.9 6 Noroeste 12 Noroeste 0 941.4 0.8 85
2019-11-18 23:00:00 3.7 5 Oeste 12 Oeste 0 941.6 1.4 86
2019-11-18 22:00:00 4.1 3 Oeste 11 Oeste 0 941.3 1.6 84
2019-11-18 21:00:00 4.7 6 Oeste 13 Oeste 0 940.6 1.5 84
2019-11-18 20:00:00 4.9 5 Oeste 10 Noroeste 0 940.2 1.5 84
2019-11-18 19:00:00 5.9 5 Noroeste 12 Noroeste 0 939.7 1.6 82
2019-11-18 18:00:00 7.7 6 Noroeste 19 Norte 0 939.1 1.1 75
2019-11-18 17:00:00 9.5 7 Noroeste -- -- 0 938.7 0.9 66
2019-11-18 16:00:00 10.5 10 Noroeste 30 Noroeste 0 938.1 0.1 61
2019-11-18 15:00:00 10.1 9 Norte 27 Norte 0 938 -0.2 62
2019-11-18 14:00:00 10.6 11 Norte 24 Norte 0 937.8 0 63
2019-11-18 13:00:00 9.6 13 Norte -- -- 0 938 0.7 64
2019-11-18 12:00:00 9 11 Noroeste 25 Noroeste 0 938.2 1.7 73
2019-11-18 11:00:00 7.4 8 Noroeste -- -- 0 937.8 2.2 80
2019-11-18 10:00:00 5.4 -- -- -- -- 0 937.3 2.1 88
2019-11-18 09:00:00 3.2 2 Oeste 13 Noroeste 0 936.5 2 96
2019-11-18 08:00:00 1.7 6 Oeste 10 Oeste 0 935.6 1.4 97
2019-11-18 07:00:00 2 4 Oeste 10 Oeste 0 935.2 1.3 97
2019-11-18 06:00:00 2.2 4 Oeste 10 Noroeste 0.2 934.5 0.5 97
2019-11-18 05:00:00 2.7 5 Noroeste 12 Noroeste 0 934.2 0.7 96
2019-11-18 04:00:00 4 6 Noroeste 17 Noroeste 0 933.9 0.3 96
2019-11-18 03:00:00 5.1 6 Noroeste 16 Noroeste 0 934 -0.2 96
2019-11-18 02:00:00 6 6 Noroeste -- -- 0 933.5 -0.3 96
2019-11-18 01:00:00 6.4 4 Sudoeste -- -- 0.8 933.6 -0.5 96
2019-11-18 00:00:00 6.3 2 Sudeste -- -- 2 934.2 -0.2 96
2019-11-17 23:00:00 7.6 10 Sudoeste 24 Sudoeste 2.6 933.8 -1.4 96
2019-11-17 22:00:00 7.2 11 Sudoeste 23 Sudoeste 3.4 934.1 -1.5 96
2019-11-17 21:00:00 7.2 10 Sudoeste 26 Sudoeste 2.8 934.4 -2.1 96
2019-11-17 20:00:00 6.8 14 Sudoeste 25 Sur 2.2 935.2 -1.2 95
2019-11-17 19:00:00 7 17 Sudoeste 28 Sudoeste 0 935.6 -1.2 95
2019-11-17 18:00:00 7.2 11 Sudoeste 30 Sudoeste 0 936.5 -0.7 93
2019-11-17 17:00:00 7.2 16 Sudoeste 29 Sudoeste 0 936.4 -1.7 89
2019-11-17 16:00:00 7 13 Sudoeste 29 Sudoeste 0 936.8 -2 86
2019-11-17 15:00:00 6.7 17 Sudoeste 32 Sudoeste 0 937.2 -2.5 88
2019-11-17 14:00:00 6.6 14 Sudoeste 39 Sudoeste 0 938.1 -1.8 87
2019-11-17 13:00:00 5.9 17 Sudoeste 37 Sudoeste 0 938.8 -1 86
2019-11-17 12:00:00 5.1 17 Sudoeste 41 Sudoeste 0 939.7 0.2 90
2019-11-17 11:00:00 6.4 18 Sudoeste 39 Sudoeste 0 939.9 0.1 73
2019-11-17 10:00:00 5.4 16 Sudoeste 31 Sudoeste 0 939.8 0.3 76
2019-11-17 09:00:00 3.5 12 Sudoeste 24 Sudoeste 0 939.5 0.1 80
2019-11-17 08:00:00 2.2 10 Sudoeste 22 Sudoeste 0 939.8 0.2 83
2019-11-17 07:00:00 2 11 Sudoeste 23 Sudoeste 0 939.5 -0.2 82
2019-11-17 06:00:00 2 9 Sudoeste 23 Sudoeste 0 939.4 -0.2 82
2019-11-17 05:00:00 1.9 10 Sudoeste 18 Sudoeste 0 939.6 -0.5 81
2019-11-17 04:00:00 1.7 9 Sudoeste 16 Sudoeste 0 939.7 -0.4 82
2019-11-17 03:00:00 0.7 7 Sudoeste 13 Sudoeste 0 939.6 -0.5 89
2019-11-17 02:00:00 0.8 2 Noroeste 17 Oeste 0 940.1 0 83
2019-11-17 01:00:00 2.6 7 Oeste 18 Sudoeste 0 940.1 0 78
2019-11-17 00:00:00 3.2 7 Sudoeste 17 Oeste 0 940.1 0.1 75
2019-11-16 23:00:00 3.5 7 Sudoeste 19 Sudoeste 0 940.1 0.4 74
2019-11-16 22:00:00 4.3 9 Sudoeste 22 Sudoeste 0 940.1 1 71
2019-11-16 21:00:00 5.3 9 Sudoeste 21 Sudoeste 0 940 1.2 69
2019-11-16 20:00:00 5.1 6 Sudoeste 11 Oeste 0 939.7 1 71
2019-11-16 19:00:00 6.3 4 Oeste 9 Oeste 0 939.1 0.9 64
2019-11-16 18:00:00 8.2 6 Oeste 18 Oeste 0 938.8 0.9 56
2019-11-16 17:00:00 9.6 9 Oeste 21 Oeste 0 938.7 0.5 51
2019-11-16 16:00:00 10.5 8 Oeste 22 Noroeste 0 938.2 -0.1 47
2019-11-16 15:00:00 10.5 8 Noroeste 22 Oeste 0 937.9 -0.7 48
2019-11-16 14:00:00 9.4 8 Noroeste 23 Noroeste 0 938.2 0.1 54
2019-11-16 13:00:00 9.1 9 Noroeste 23 Oeste 0 938.3 0.7 55
2019-11-16 12:00:00 8.3 6 Noroeste 19 Norte 0 938.6 1.5 62
2019-11-16 11:00:00 6.1 4 Noroeste 15 Noroeste 0 938.1 1.7 73
2019-11-16 10:00:00 4.4 8 Noroeste 16 Noroeste 0 937.6 2.4 75
2019-11-16 09:00:00 2.2 8 Noroeste 18 Oeste 0 937.1 2.6 82
2019-11-16 08:00:00 0.9 9 Noroeste 22 Noroeste 0 936.4 2.6 87
2019-11-16 07:00:00 1.1 7 Noroeste 14 Noroeste 0 935.2 1.9 85
2019-11-16 06:00:00 1 4 Sudoeste 10 Sudoeste 0 934.5 1.6 86
2019-11-16 05:00:00 1.9 5 Oeste 11 Sudoeste 0 933.8 1.3 82
2019-11-16 04:00:00 2.1 5 Sudoeste 13 Sudoeste 0 933.3 1 83
2019-11-16 03:00:00 2.8 6 Sudoeste 15 Oeste 0 932.9 0.9 83
2019-11-16 02:00:00 3.8 7 Sudoeste 15 Sudoeste 0 932.5 1 81
2019-11-16 01:00:00 4.4 9 Sudoeste 16 Sudoeste 0 932.3 1.1 81
2019-11-16 00:00:00 4.3 7 Sudoeste 17 Sudoeste 0 932 1.3 83
2019-11-15 23:00:00 4.8 8 Sudoeste 19 Sudoeste 0 931.5 1 80
2019-11-15 22:00:00 5.1 9 Sudoeste 19 Sudoeste 0 931.2 0.9 79
2019-11-15 21:00:00 5.5 10 Sudoeste 19 Oeste 0 930.7 0.8 78
2019-11-15 20:00:00 6 10 Sudoeste 16 Sudoeste 0 930.5 1 76
2019-11-15 19:00:00 6.2 5 Oeste 15 Oeste 0 930.3 1.1 72
2019-11-15 18:00:00 6.8 8 Oeste 17 Sudoeste 0 929.9 0.8 69
2019-11-15 17:00:00 7.1 7 Oeste 18 Oeste 0 929.5 -- 67
2019-11-15 16:00:00 7.3 9 Oeste 23 Oeste 0 929.2 -- 64
2019-11-15 15:00:00 7 11 Oeste 25 Oeste 0 929.1 -- 67
2019-11-15 14:00:00 -- -- -- -- -- -- -- -- --
2019-11-15 13:00:00 -- -- -- -- -- -- -- -- --
2019-11-15 12:00:00 -- -- -- -- -- -- -- -- --
2019-11-15 11:00:00 -- -- -- -- -- -- -- -- --
2019-11-15 10:00:00 -- -- -- -- -- -- -- -- --
2019-11-15 09:00:00 -- -- -- -- -- -- -- -- --
2019-11-15 08:00:00 -- -- -- -- -- -- -- -- --
2019-11-15 07:00:00 -- -- -- -- -- -- -- -- --
2019-11-15 06:00:00 -- -- -- -- -- -- -- -- --
2019-11-15 05:00:00 -- -- -- -- -- -- -- -- --
2019-11-15 04:00:00 -- -- -- -- -- -- -- -- --
2019-11-15 03:00:00 -- -- -- -- -- -- -- -- --
2019-11-15 02:00:00 -- -- -- -- -- -- -- -- --
2019-11-15 01:00:00 -- -- -- -- -- -- -- -- --
2019-11-15 00:00:00 -- -- -- -- -- -- -- -- --
2019-11-14 23:00:00 -- -- -- -- -- -- -- -- --
2019-11-14 22:00:00 -- -- -- -- -- -- -- -- --
2019-11-14 21:00:00 -- -- -- -- -- -- -- -- --
2019-11-14 20:00:00 -- -- -- -- -- -- -- -- --
2019-11-14 19:00:00 -- -- -- -- -- -- -- -- --
2019-11-14 18:00:00 -- -- -- -- -- -- -- -- --
2019-11-14 17:00:00 -- -- -- -- -- -- -- -- --
2019-11-14 16:00:00 -- -- -- -- -- -- -- -- --
2019-11-14 15:00:00 -- -- -- -- -- -- -- -- --
2019-11-14 14:00:00 -- -- -- -- -- -- -- -- --
2019-11-14 13:00:00 -- -- -- -- -- -- -- -- --
2019-11-14 12:00:00 -- -- -- -- -- -- -- -- --
2019-11-14 11:00:00 -- -- -- -- -- -- -- -- --
2019-11-14 10:00:00 -- -- -- -- -- -- -- -- --
2019-11-14 09:00:00 -- -- -- -- -- -- -- -- --
2019-11-14 08:00:00 -- -- -- -- -- -- -- -- --
2019-11-14 07:00:00 -- -- -- -- -- -- -- -- --
2019-11-14 06:00:00 -- -- -- -- -- -- -- -- --
2019-11-14 05:00:00 -- -- -- -- -- -- -- -- --
2019-11-14 04:00:00 -- -- -- -- -- -- -- -- --
2019-11-14 03:00:00 -- -- -- -- -- -- -- -- --
2019-11-14 02:00:00 -- -- -- -- -- -- -- -- --
2019-11-14 01:00:00 -- -- -- -- -- -- -- -- --
2019-11-14 00:00:00 -- -- -- -- -- -- -- -- --
2019-11-13 23:00:00 -- -- -- -- -- -- -- -- --
2019-11-13 22:00:00 -- -- -- -- -- -- -- -- --
2019-11-13 21:00:00 -- -- -- -- -- -- -- -- --
2019-11-13 20:00:00 -- -- -- -- -- -- -- -- --
2019-11-13 19:00:00 -- -- -- -- -- -- -- -- --
2019-11-13 18:00:00 -- -- -- -- -- -- -- -- --
2019-11-13 17:00:00 -- -- -- -- -- -- -- -- --
2019-11-13 16:00:00 -- -- -- -- -- -- -- -- --
2019-11-13 15:00:00 -- -- -- -- -- -- -- -- --
2019-11-13 14:00:00 -- -- -- -- -- -- -- -- --
2019-11-13 13:00:00 -- -- -- -- -- -- -- -- --
2019-11-13 12:00:00 -- -- -- -- -- -- -- -- --
2019-11-13 11:00:00 -- -- -- -- -- -- -- -- --
2019-11-13 10:00:00 -- -- -- -- -- -- -- -- --
2019-11-13 09:00:00 10.5 15 Oeste 37 Oeste 0 933.6 1 95
2019-11-13 08:00:00 10.4 18 Oeste 43 Oeste 0 932.6 -0.1 93
2019-11-13 07:00:00 10.3 19 Oeste 43 Oeste 0 932.2 -1.1 93
2019-11-13 06:00:00 10.3 19 Oeste 41 Oeste 0 932.6 -0.9 90
2019-11-13 05:00:00 10 17 Oeste 42 Oeste 0.2 932.7 -1.8 92
2019-11-13 04:00:00 9.5 13 Sudoeste 32 Sudoeste 1 933.3 -2.1 94
2019-11-13 03:00:00 8.8 15 Sudoeste 32 Sudoeste 0.2 933.5 -2.5 88
2019-11-13 02:00:00 8.4 14 Sudoeste 33 Sudoeste 0.6 934.5 -2.1 85
2019-11-13 01:00:00 9 15 Sudoeste 30 Sudoeste 0 935.4 -1.5 77
2019-11-13 00:00:00 9.3 14 Sudoeste 27 Sudoeste 0 936 -1.4 70
2019-11-12 23:00:00 8.8 12 Sudoeste 24 Sudoeste 0 936.6 -0.7 75
2019-11-12 22:00:00 8.4 10 Sudoeste 24 Sudoeste 0 936.9 -0.2 77
2019-11-12 21:00:00 8.4 10 Oeste 22 Oeste 0 937.4 -0.1 76
2019-11-12 20:00:00 8.9 9 Oeste 21 Oeste 0 937.3 -0.2 72
2019-11-12 19:00:00 9.2 6 Oeste 13 Sudoeste 0 937.1 -0.7 61
2019-11-12 18:00:00 10.6 6 Noroeste 22 Noroeste 0 937.5 -0.8 54
2019-11-12 17:00:00 12.8 7 Noroeste 24 Norte 0 937.5 -1.1 50
2019-11-12 16:00:00 13.5 8 Noroeste 26 Oeste 0 937.8 -1.4 45
2019-11-12 15:00:00 13.5 8 Noroeste 23 Noroeste 0 938.3 -1.9 49
2019-11-12 14:00:00 12.9 11 Noroeste 23 Norte 0 938.6 -1.5 53
2019-11-12 13:00:00 12 6 Noroeste 22 Noroeste 0 939.2 -1.2 60
2019-11-12 12:00:00 9.5 5 Oeste 13 Oeste 0 940.2 0.5 71
2019-11-12 11:00:00 7.6 5 Oeste 11 Oeste 0 940.1 0.7 79
2019-11-12 10:00:00 5.7 6 Oeste 15 Oeste 0 940.4 1.1 86
2019-11-12 09:00:00 4.2 6 Oeste 12 Oeste 0 939.7 0.1 90
2019-11-12 08:00:00 3.1 5 Oeste 11 Oeste 0 939.4 -0.5 94
2019-11-12 07:00:00 3.4 5 Oeste 9 Oeste 0 939.3 -0.3 94
2019-11-12 06:00:00 3.8 4 Oeste 10 Oeste 0 939.6 -0.4 95
2019-11-12 05:00:00 4.1 4 Oeste 11 Oeste 0 939.9 -0.7 97
2019-11-12 04:00:00 4.3 5 Oeste 12 Oeste 0 939.6 -0.8 98
2019-11-12 03:00:00 4.7 5 Oeste 10 Oeste 0 940 -0.5 98
2019-11-12 02:00:00 5.2 5 Oeste 13 Oeste 0 940.6 0 98
2019-11-12 01:00:00 5.9 6 Oeste 12 Oeste 0 940.4 -0.1 97
2019-11-12 00:00:00 5.8 6 Sudoeste 10 Sur 0 940.5 0.5 97
2019-11-11 23:00:00 6.3 4 Oeste 9 Oeste 0 940.6 0.6 96
2019-11-11 22:00:00 6.3 3 Norte 9 Noroeste 0 940.5 0.9 95
2019-11-11 21:00:00 7 4 Norte 8 Noroeste 0 940 0.5 93
2019-11-11 20:00:00 8.5 5 Noroeste 12 Noroeste 0 940 0.8 90
2019-11-11 19:00:00 9.2 6 Oeste 14 Oeste 0 939.6 0.7 88
2019-11-11 18:00:00 10.2 8 Oeste 20 Oeste 0 939.5 0.4 82
2019-11-11 17:00:00 10.6 12 Oeste 24 Oeste 0 939.2 -0.4 79
2019-11-11 16:00:00 10.3 11 Oeste 27 Oeste 0 938.9 -0.9 80
2019-11-11 15:00:00 9.9 12 Oeste 25 Oeste 0 939.1 -1.9 80
2019-11-11 14:00:00 9.5 12 Oeste 24 Oeste 0 939.6 -1.4 78
2019-11-11 13:00:00 9.2 10 Oeste 24 Sudoeste 0 939.8 -1.6 77
2019-11-11 12:00:00 8.2 9 Oeste 18 Oeste 0 941 -0.2 80
2019-11-11 11:00:00 7 8 Oeste 20 Oeste 0 941 -0.4 84
2019-11-11 10:00:00 6 9 Oeste 16 Oeste 0 941.4 0.2 86
2019-11-11 09:00:00 4.9 9 Oeste 23 Oeste 0 941.2 0 89
2019-11-11 08:00:00 4.3 9 Oeste 16 Sudoeste 0 941.4 -0.1 90
2019-11-11 07:00:00 4.2 5 Oeste 12 Sudoeste 0 941.2 -0.2 88
2019-11-11 06:00:00 3.7 5 Sudoeste 14 Sudoeste 0 941.2 -0.3 89
2019-11-11 05:00:00 3.4 7 Sudoeste 14 Sudoeste 0 941.5 -0.6 89
2019-11-11 04:00:00 3.3 6 Sudoeste 12 Sudoeste 0 941.4 -0.4 89
2019-11-11 03:00:00 3.1 6 Sudoeste 13 Oeste 0 941.5 -0.2 90
2019-11-11 02:00:00 3.3 5 Oeste 14 Oeste 0 942.1 0.5 90
2019-11-11 01:00:00 3.7 7 Noroeste 19 Noroeste 0 941.8 0.8 89
2019-11-11 00:00:00 4 8 Noroeste 19 Noroeste 0 941.7 0.7 88